sensor_id;sensor_type;location;lat;lon;timestamp;P1;durP1;ratioP1;P2;durP2;ratioP2
828;SDS011;396;52.558;13.188;2023-07-20T00:01:26;9.13;;;2.00;;
828;SDS011;396;52.558;13.188;2023-07-20T00:03:52;7.73;;;2.30;;
828;SDS011;396;52.558;13.188;2023-07-20T00:06:20;6.37;;;2.47;;
828;SDS011;396;52.558;13.188;2023-07-20T00:08:47;9.40;;;2.87;;
828;SDS011;396;52.558;13.188;2023-07-20T00:11:14;10.43;;;3.10;;
828;SDS011;396;52.558;13.188;2023-07-20T00:13:42;6.17;;;2.20;;
828;SDS011;396;52.558;13.188;2023-07-20T00:16:09;6.10;;;1.90;;
828;SDS011;396;52.558;13.188;2023-07-20T00:18:35;7.93;;;2.90;;
828;SDS011;396;52.558;13.188;2023-07-20T00:21:02;6.67;;;2.43;;
828;SDS011;396;52.558;13.188;2023-07-20T00:23:29;6.50;;;2.30;;
828;SDS011;396;52.558;13.188;2023-07-20T00:25:55;7.70;;;2.53;;
828;SDS011;396;52.558;13.188;2023-07-20T00:28:22;8.93;;;2.70;;
828;SDS011;396;52.558;13.188;2023-07-20T00:30:50;7.10;;;2.43;;
828;SDS011;396;52.558;13.188;2023-07-20T00:33:17;7.20;;;2.50;;
828;SDS011;396;52.558;13.188;2023-07-20T00:35:44;6.60;;;2.50;;
828;SDS011;396;52.558;13.188;2023-07-20T00:38:11;8.30;;;2.30;;
828;SDS011;396;52.558;13.188;2023-07-20T00:40:38;8.20;;;2.80;;
828;SDS011;396;52.558;13.188;2023-07-20T00:43:05;6.10;;;1.77;;
828;SDS011;396;52.558;13.188;2023-07-20T00:45:32;6.67;;;2.40;;
828;SDS011;396;52.558;13.188;2023-07-20T00:48:01;7.80;;;2.67;;
828;SDS011;396;52.558;13.188;2023-07-20T00:50:30;6.83;;;2.10;;
828;SDS011;396;52.558;13.188;2023-07-20T00:52:57;6.60;;;2.23;;
828;SDS011;396;52.558;13.188;2023-07-20T00:55:24;6.90;;;2.33;;
828;SDS011;396;52.558;13.188;2023-07-20T00:57:51;6.70;;;2.27;;
828;SDS011;396;52.558;13.188;2023-07-20T01:00:18;7.00;;;2.43;;
828;SDS011;396;52.558;13.188;2023-07-20T01:02:45;6.33;;;1.80;;
828;SDS011;396;52.558;13.188;2023-07-20T01:05:13;8.13;;;2.80;;
828;SDS011;396;52.558;13.188;2023-07-20T01:07:43;9.23;;;2.70;;
828;SDS011;396;52.558;13.188;2023-07-20T01:10:18;6.93;;;2.33;;
828;SDS011;396;52.558;13.188;2023-07-20T01:12:51;7.20;;;2.73;;
828;SDS011;396;52.558;13.188;2023-07-20T01:15:19;6.37;;;2.40;;
828;SDS011;396;52.558;13.188;2023-07-20T01:17:45;6.03;;;2.13;;
828;SDS011;396;52.558;13.188;2023-07-20T01:20:14;6.60;;;2.53;;
828;SDS011;396;52.558;13.188;2023-07-20T01:22:59;6.90;;;2.50;;
828;SDS011;396;52.558;13.188;2023-07-20T01:25:53;8.07;;;3.10;;
828;SDS011;396;52.558;13.188;2023-07-20T01:28:56;6.27;;;2.20;;
828;SDS011;396;52.558;13.188;2023-07-20T01:31:36;8.57;;;2.73;;
828;SDS011;396;52.558;13.188;2023-07-20T01:34:04;9.20;;;2.60;;
828;SDS011;396;52.558;13.188;2023-07-20T01:36:35;8.30;;;3.17;;
828;SDS011;396;52.558;13.188;2023-07-20T01:39:03;7.73;;;2.80;;
828;SDS011;396;52.558;13.188;2023-07-20T01:41:32;7.40;;;2.60;;
828;SDS011;396;52.558;13.188;2023-07-20T01:44:00;9.17;;;3.03;;
828;SDS011;396;52.558;13.188;2023-07-20T01:46:27;6.77;;;2.87;;
828;SDS011;396;52.558;13.188;2023-07-20T01:48:55;7.40;;;2.60;;
828;SDS011;396;52.558;13.188;2023-07-20T01:51:22;9.47;;;3.30;;
828;SDS011;396;52.558;13.188;2023-07-20T01:53:49;7.87;;;2.90;;
828;SDS011;396;52.558;13.188;2023-07-20T01:56:15;8.07;;;3.50;;
828;SDS011;396;52.558;13.188;2023-07-20T01:58:42;6.60;;;2.63;;
828;SDS011;396;52.558;13.188;2023-07-20T02:01:09;5.90;;;2.33;;
828;SDS011;396;52.558;13.188;2023-07-20T02:03:35;7.23;;;2.90;;
828;SDS011;396;52.558;13.188;2023-07-20T02:06:03;6.57;;;2.20;;
828;SDS011;396;52.558;13.188;2023-07-20T02:08:30;9.20;;;3.47;;
828;SDS011;396;52.558;13.188;2023-07-20T02:10:57;9.43;;;3.67;;
828;SDS011;396;52.558;13.188;2023-07-20T02:13:23;7.33;;;3.13;;
828;SDS011;396;52.558;13.188;2023-07-20T02:15:50;9.10;;;3.50;;
828;SDS011;396;52.558;13.188;2023-07-20T02:18:17;6.70;;;2.43;;
828;SDS011;396;52.558;13.188;2023-07-20T02:20:43;7.90;;;2.80;;
828;SDS011;396;52.558;13.188;2023-07-20T02:23:11;7.60;;;2.87;;
828;SDS011;396;52.558;13.188;2023-07-20T02:25:38;7.20;;;2.77;;
828;SDS011;396;52.558;13.188;2023-07-20T02:28:04;6.80;;;2.63;;
828;SDS011;396;52.558;13.188;2023-07-20T02:30:33;7.87;;;3.20;;
828;SDS011;396;52.558;13.188;2023-07-20T02:32:59;8.57;;;3.60;;
828;SDS011;396;52.558;13.188;2023-07-20T02:35:26;8.53;;;3.50;;
828;SDS011;396;52.558;13.188;2023-07-20T02:37:53;8.07;;;3.20;;
828;SDS011;396;52.558;13.188;2023-07-20T02:40:21;7.40;;;3.13;;
828;SDS011;396;52.558;13.188;2023-07-20T02:42:48;7.50;;;2.80;;
828;SDS011;396;52.558;13.188;2023-07-20T02:45:15;8.73;;;3.90;;
828;SDS011;396;52.558;13.188;2023-07-20T02:47:42;7.80;;;3.43;;
828;SDS011;396;52.558;13.188;2023-07-20T02:50:09;6.43;;;2.70;;
828;SDS011;396;52.558;13.188;2023-07-20T02:52:38;6.83;;;2.90;;
828;SDS011;396;52.558;13.188;2023-07-20T02:55:05;8.23;;;3.97;;
828;SDS011;396;52.558;13.188;2023-07-20T02:57:34;9.70;;;3.13;;
828;SDS011;396;52.558;13.188;2023-07-20T03:00:01;10.27;;;4.00;;
828;SDS011;396;52.558;13.188;2023-07-20T03:02:29;14.60;;;4.30;;
828;SDS011;396;52.558;13.188;2023-07-20T03:04:56;8.47;;;3.70;;
828;SDS011;396;52.558;13.188;2023-07-20T03:07:26;8.93;;;4.40;;
828;SDS011;396;52.558;13.188;2023-07-20T03:09:54;7.23;;;3.20;;
828;SDS011;396;52.558;13.188;2023-07-20T03:12:21;9.93;;;3.97;;
828;SDS011;396;52.558;13.188;2023-07-20T03:14:49;11.47;;;4.60;;
828;SDS011;396;52.558;13.188;2023-07-20T03:17:15;9.40;;;3.80;;
828;SDS011;396;52.558;13.188;2023-07-20T03:19:42;8.00;;;3.27;;
828;SDS011;396;52.558;13.188;2023-07-20T03:22:08;11.37;;;3.97;;
828;SDS011;396;52.558;13.188;2023-07-20T03:24:35;9.23;;;4.53;;
828;SDS011;396;52.558;13.188;2023-07-20T03:27:02;8.57;;;3.80;;
828;SDS011;396;52.558;13.188;2023-07-20T03:29:28;11.37;;;4.73;;
828;SDS011;396;52.558;13.188;2023-07-20T03:31:58;9.27;;;3.83;;
828;SDS011;396;52.558;13.188;2023-07-20T03:34:25;8.77;;;3.43;;
828;SDS011;396;52.558;13.188;2023-07-20T03:36:52;10.63;;;4.77;;
828;SDS011;396;52.558;13.188;2023-07-20T03:39:18;8.47;;;4.30;;
828;SDS011;396;52.558;13.188;2023-07-20T03:41:45;8.80;;;4.10;;
828;SDS011;396;52.558;13.188;2023-07-20T03:44:11;8.80;;;4.00;;
828;SDS011;396;52.558;13.188;2023-07-20T03:46:38;8.70;;;3.40;;
828;SDS011;396;52.558;13.188;2023-07-20T03:49:06;10.57;;;4.37;;
828;SDS011;396;52.558;13.188;2023-07-20T03:51:34;8.70;;;3.33;;
828;SDS011;396;52.558;13.188;2023-07-20T03:54:00;10.83;;;4.60;;
828;SDS011;396;52.558;13.188;2023-07-20T03:56:27;13.40;;;4.63;;
828;SDS011;396;52.558;13.188;2023-07-20T03:58:54;9.97;;;3.90;;
828;SDS011;396;52.558;13.188;2023-07-20T04:01:20;12.57;;;4.57;;
828;SDS011;396;52.558;13.188;2023-07-20T04:03:47;9.90;;;4.77;;
828;SDS011;396;52.558;13.188;2023-07-20T04:06:15;11.27;;;4.63;;
828;SDS011;396;52.558;13.188;2023-07-20T04:08:42;9.73;;;3.90;;
828;SDS011;396;52.558;13.188;2023-07-20T04:11:09;10.57;;;4.97;;
828;SDS011;396;52.558;13.188;2023-07-20T04:13:36;8.40;;;4.00;;
828;SDS011;396;52.558;13.188;2023-07-20T04:16:02;8.87;;;3.60;;
828;SDS011;396;52.558;13.188;2023-07-20T04:18:29;11.70;;;4.10;;
828;SDS011;396;52.558;13.188;2023-07-20T04:20:56;8.83;;;4.40;;
828;SDS011;396;52.558;13.188;2023-07-20T04:23:24;8.10;;;3.57;;
828;SDS011;396;52.558;13.188;2023-07-20T04:25:50;9.30;;;4.10;;
828;SDS011;396;52.558;13.188;2023-07-20T04:28:17;8.53;;;3.87;;
828;SDS011;396;52.558;13.188;2023-07-20T04:30:44;11.90;;;4.70;;
828;SDS011;396;52.558;13.188;2023-07-20T04:33:10;8.67;;;4.20;;
828;SDS011;396;52.558;13.188;2023-07-20T04:35:49;11.47;;;5.40;;
828;SDS011;396;52.558;13.188;2023-07-20T04:38:17;10.37;;;4.27;;
828;SDS011;396;52.558;13.188;2023-07-20T04:40:46;8.90;;;4.30;;
828;SDS011;396;52.558;13.188;2023-07-20T04:43:13;9.73;;;3.87;;
828;SDS011;396;52.558;13.188;2023-07-20T04:45:40;10.27;;;3.97;;
828;SDS011;396;52.558;13.188;2023-07-20T04:48:08;11.60;;;4.40;;
828;SDS011;396;52.558;13.188;2023-07-20T04:50:37;8.30;;;3.63;;
828;SDS011;396;52.558;13.188;2023-07-20T04:53:04;15.70;;;5.17;;
828;SDS011;396;52.558;13.188;2023-07-20T04:55:31;9.47;;;3.90;;
828;SDS011;396;52.558;13.188;2023-07-20T04:58:00;12.03;;;4.10;;
828;SDS011;396;52.558;13.188;2023-07-20T05:00:26;8.17;;;2.70;;
828;SDS011;396;52.558;13.188;2023-07-20T05:02:53;14.63;;;5.60;;
828;SDS011;396;52.558;13.188;2023-07-20T05:05:20;9.47;;;4.33;;
828;SDS011;396;52.558;13.188;2023-07-20T05:07:46;13.67;;;4.40;;
828;SDS011;396;52.558;13.188;2023-07-20T05:10:13;8.63;;;3.37;;
828;SDS011;396;52.558;13.188;2023-07-20T05:12:40;8.80;;;3.80;;
828;SDS011;396;52.558;13.188;2023-07-20T05:15:08;10.77;;;3.33;;
828;SDS011;396;52.558;13.188;2023-07-20T05:17:35;7.43;;;3.47;;
828;SDS011;396;52.558;13.188;2023-07-20T05:20:02;10.57;;;3.77;;
828;SDS011;396;52.558;13.188;2023-07-20T05:22:30;9.03;;;3.80;;
828;SDS011;396;52.558;13.188;2023-07-20T05:24:56;7.60;;;3.40;;
828;SDS011;396;52.558;13.188;2023-07-20T05:27:23;10.83;;;4.30;;
828;SDS011;396;52.558;13.188;2023-07-20T05:29:50;10.20;;;3.57;;
828;SDS011;396;52.558;13.188;2023-07-20T05:32:18;9.60;;;3.90;;
828;SDS011;396;52.558;13.188;2023-07-20T05:34:44;9.67;;;4.60;;
828;SDS011;396;52.558;13.188;2023-07-20T05:37:11;9.93;;;4.37;;
828;SDS011;396;52.558;13.188;2023-07-20T05:39:38;10.70;;;4.00;;
828;SDS011;396;52.558;13.188;2023-07-20T05:42:05;11.20;;;4.73;;
828;SDS011;396;52.558;13.188;2023-07-20T05:44:31;12.80;;;4.97;;
828;SDS011;396;52.558;13.188;2023-07-20T05:46:58;8.93;;;3.83;;
828;SDS011;396;52.558;13.188;2023-07-20T05:49:26;8.17;;;3.70;;
828;SDS011;396;52.558;13.188;2023-07-20T05:51:53;9.27;;;3.60;;
828;SDS011;396;52.558;13.188;2023-07-20T05:54:23;9.80;;;4.13;;
828;SDS011;396;52.558;13.188;2023-07-20T05:56:53;10.37;;;4.67;;
828;SDS011;396;52.558;13.188;2023-07-20T05:59:20;9.83;;;4.40;;
828;SDS011;396;52.558;13.188;2023-07-20T06:01:48;10.23;;;3.37;;
828;SDS011;396;52.558;13.188;2023-07-20T06:04:15;7.70;;;3.10;;
828;SDS011;396;52.558;13.188;2023-07-20T06:06:43;9.33;;;3.70;;
828;SDS011;396;52.558;13.188;2023-07-20T06:09:10;7.93;;;2.80;;
828;SDS011;396;52.558;13.188;2023-07-20T06:11:37;8.33;;;2.60;;
828;SDS011;396;52.558;13.188;2023-07-20T06:14:04;9.53;;;2.97;;
828;SDS011;396;52.558;13.188;2023-07-20T06:16:31;10.30;;;3.10;;
828;SDS011;396;52.558;13.188;2023-07-20T06:18:59;8.53;;;3.60;;
828;SDS011;396;52.558;13.188;2023-07-20T06:21:26;7.30;;;2.73;;
828;SDS011;396;52.558;13.188;2023-07-20T06:23:54;9.50;;;3.07;;
828;SDS011;396;52.558;13.188;2023-07-20T06:26:20;7.43;;;2.57;;
828;SDS011;396;52.558;13.188;2023-07-20T06:28:47;7.53;;;2.30;;
828;SDS011;396;52.558;13.188;2023-07-20T06:31:14;6.77;;;2.13;;
828;SDS011;396;52.558;13.188;2023-07-20T06:33:40;6.43;;;2.40;;
828;SDS011;396;52.558;13.188;2023-07-20T06:36:07;6.40;;;2.17;;
828;SDS011;396;52.558;13.188;2023-07-20T06:38:33;6.70;;;2.13;;
828;SDS011;396;52.558;13.188;2023-07-20T06:43:28;5.83;;;1.63;;
828;SDS011;396;52.558;13.188;2023-07-20T06:46:30;5.20;;;1.40;;
828;SDS011;396;52.558;13.188;2023-07-20T06:49:24;7.07;;;1.80;;
828;SDS011;396;52.558;13.188;2023-07-20T06:55:31;5.30;;;1.20;;
828;SDS011;396;52.558;13.188;2023-07-20T06:57:58;5.10;;;1.20;;
828;SDS011;396;52.558;13.188;2023-07-20T07:01:08;5.07;;;1.10;;
828;SDS011;396;52.558;13.188;2023-07-20T07:04:00;5.73;;;1.50;;
828;SDS011;396;52.558;13.188;2023-07-20T07:06:26;5.47;;;1.40;;
828;SDS011;396;52.558;13.188;2023-07-20T07:08:56;5.73;;;1.30;;
828;SDS011;396;52.558;13.188;2023-07-20T07:11:26;5.10;;;1.10;;
828;SDS011;396;52.558;13.188;2023-07-20T07:13:53;4.80;;;0.93;;
828;SDS011;396;52.558;13.188;2023-07-20T07:16:21;4.63;;;0.97;;
828;SDS011;396;52.558;13.188;2023-07-20T07:18:51;8.30;;;1.23;;
828;SDS011;396;52.558;13.188;2023-07-20T07:21:26;5.20;;;0.90;;
828;SDS011;396;52.558;13.188;2023-07-20T07:23:53;4.73;;;0.90;;
828;SDS011;396;52.558;13.188;2023-07-20T07:26:22;6.03;;;1.20;;
828;SDS011;396;52.558;13.188;2023-07-20T07:28:49;5.07;;;1.00;;
828;SDS011;396;52.558;13.188;2023-07-20T07:31:15;5.03;;;1.40;;
828;SDS011;396;52.558;13.188;2023-07-20T07:33:43;4.60;;;0.97;;
828;SDS011;396;52.558;13.188;2023-07-20T07:36:10;4.80;;;0.90;;
828;SDS011;396;52.558;13.188;2023-07-20T07:38:37;4.33;;;0.70;;
828;SDS011;396;52.558;13.188;2023-07-20T07:41:03;4.83;;;0.77;;
828;SDS011;396;52.558;13.188;2023-07-20T07:43:30;4.73;;;1.03;;
828;SDS011;396;52.558;13.188;2023-07-20T07:45:57;5.20;;;1.10;;
828;SDS011;396;52.558;13.188;2023-07-20T07:48:23;5.00;;;0.77;;
828;SDS011;396;52.558;13.188;2023-07-20T07:50:51;4.73;;;0.73;;
828;SDS011;396;52.558;13.188;2023-07-20T07:53:19;4.67;;;0.80;;
828;SDS011;396;52.558;13.188;2023-07-20T07:55:47;4.43;;;0.70;;
828;SDS011;396;52.558;13.188;2023-07-20T07:58:13;4.27;;;0.60;;
828;SDS011;396;52.558;13.188;2023-07-20T08:00:40;4.30;;;0.57;;
828;SDS011;396;52.558;13.188;2023-07-20T08:03:08;4.40;;;0.60;;
828;SDS011;396;52.558;13.188;2023-07-20T08:05:35;4.50;;;0.60;;
828;SDS011;396;52.558;13.188;2023-07-20T08:08:03;4.30;;;0.57;;
828;SDS011;396;52.558;13.188;2023-07-20T08:10:30;4.43;;;0.73;;
828;SDS011;396;52.558;13.188;2023-07-20T08:12:56;4.77;;;0.90;;
828;SDS011;396;52.558;13.188;2023-07-20T08:15:23;4.30;;;0.60;;
828;SDS011;396;52.558;13.188;2023-07-20T08:17:49;4.67;;;0.80;;
828;SDS011;396;52.558;13.188;2023-07-20T08:20:17;4.10;;;0.50;;
828;SDS011;396;52.558;13.188;2023-07-20T08:22:44;4.17;;;0.60;;
828;SDS011;396;52.558;13.188;2023-07-20T08:25:12;4.33;;;0.60;;
828;SDS011;396;52.558;13.188;2023-07-20T08:27:39;4.17;;;0.67;;
828;SDS011;396;52.558;13.188;2023-07-20T08:30:06;4.23;;;0.70;;
828;SDS011;396;52.558;13.188;2023-07-20T08:32:34;4.93;;;0.60;;
828;SDS011;396;52.558;13.188;2023-07-20T08:35:01;4.23;;;0.63;;
828;SDS011;396;52.558;13.188;2023-07-20T08:37:27;4.20;;;0.70;;
828;SDS011;396;52.558;13.188;2023-07-20T08:39:54;6.97;;;0.93;;
828;SDS011;396;52.558;13.188;2023-07-20T08:42:22;4.20;;;0.60;;
828;SDS011;396;52.558;13.188;2023-07-20T08:44:49;4.07;;;0.50;;
828;SDS011;396;52.558;13.188;2023-07-20T08:47:17;4.20;;;0.57;;
828;SDS011;396;52.558;13.188;2023-07-20T08:49:47;4.10;;;0.60;;
828;SDS011;396;52.558;13.188;2023-07-20T08:52:14;4.10;;;0.53;;
828;SDS011;396;52.558;13.188;2023-07-20T08:54:41;4.40;;;0.50;;
828;SDS011;396;52.558;13.188;2023-07-20T08:57:08;4.27;;;0.50;;
828;SDS011;396;52.558;13.188;2023-07-20T08:59:41;4.87;;;0.60;;
828;SDS011;396;52.558;13.188;2023-07-20T09:02:09;7.07;;;1.13;;
828;SDS011;396;52.558;13.188;2023-07-20T09:04:42;7.30;;;0.90;;
828;SDS011;396;52.558;13.188;2023-07-20T09:07:10;4.30;;;0.60;;
828;SDS011;396;52.558;13.188;2023-07-20T09:09:39;4.20;;;0.70;;
828;SDS011;396;52.558;13.188;2023-07-20T09:12:12;4.13;;;0.53;;
828;SDS011;396;52.558;13.188;2023-07-20T09:14:41;7.43;;;1.20;;
828;SDS011;396;52.558;13.188;2023-07-20T09:17:10;4.20;;;0.70;;
828;SDS011;396;52.558;13.188;2023-07-20T09:19:42;4.10;;;0.50;;
828;SDS011;396;52.558;13.188;2023-07-20T09:22:12;4.40;;;0.73;;
828;SDS011;396;52.558;13.188;2023-07-20T09:24:39;4.13;;;0.60;;
828;SDS011;396;52.558;13.188;2023-07-20T09:27:06;4.10;;;0.57;;
828;SDS011;396;52.558;13.188;2023-07-20T09:29:34;4.40;;;0.70;;
828;SDS011;396;52.558;13.188;2023-07-20T09:32:03;4.10;;;0.60;;
828;SDS011;396;52.558;13.188;2023-07-20T09:34:30;4.30;;;0.60;;
828;SDS011;396;52.558;13.188;2023-07-20T09:36:57;4.97;;;0.77;;
828;SDS011;396;52.558;13.188;2023-07-20T09:39:25;4.10;;;0.60;;
828;SDS011;396;52.558;13.188;2023-07-20T09:41:52;5.77;;;0.80;;
828;SDS011;396;52.558;13.188;2023-07-20T09:44:19;4.17;;;0.57;;
828;SDS011;396;52.558;13.188;2023-07-20T09:46:46;4.43;;;0.90;;
828;SDS011;396;52.558;13.188;2023-07-20T09:49:15;4.50;;;0.80;;
828;SDS011;396;52.558;13.188;2023-07-20T09:51:44;4.90;;;0.80;;
828;SDS011;396;52.558;13.188;2023-07-20T09:54:11;4.20;;;0.70;;
828;SDS011;396;52.558;13.188;2023-07-20T09:56:39;4.80;;;1.10;;
828;SDS011;396;52.558;13.188;2023-07-20T09:59:06;5.43;;;0.80;;
828;SDS011;396;52.558;13.188;2023-07-20T10:01:34;4.43;;;0.70;;
828;SDS011;396;52.558;13.188;2023-07-20T10:04:02;4.50;;;0.70;;
828;SDS011;396;52.558;13.188;2023-07-20T10:06:32;4.13;;;0.50;;
828;SDS011;396;52.558;13.188;2023-07-20T10:09:00;4.40;;;0.73;;
828;SDS011;396;52.558;13.188;2023-07-20T10:11:29;4.40;;;0.60;;
828;SDS011;396;52.558;13.188;2023-07-20T10:13:58;4.30;;;0.63;;
828;SDS011;396;52.558;13.188;2023-07-20T10:16:26;4.20;;;0.60;;
828;SDS011;396;52.558;13.188;2023-07-20T10:18:59;5.00;;;0.97;;
828;SDS011;396;52.558;13.188;2023-07-20T10:21:32;4.50;;;0.90;;
828;SDS011;396;52.558;13.188;2023-07-20T10:24:01;4.10;;;0.63;;
828;SDS011;396;52.558;13.188;2023-07-20T10:26:29;4.10;;;0.53;;
828;SDS011;396;52.558;13.188;2023-07-20T10:28:56;4.50;;;0.73;;
828;SDS011;396;52.558;13.188;2023-07-20T10:31:24;4.30;;;0.70;;
828;SDS011;396;52.558;13.188;2023-07-20T10:33:54;5.80;;;0.80;;
828;SDS011;396;52.558;13.188;2023-07-20T10:36:24;4.23;;;0.60;;
828;SDS011;396;52.558;13.188;2023-07-20T10:38:53;5.03;;;0.80;;
828;SDS011;396;52.558;13.188;2023-07-20T10:41:23;5.20;;;0.80;;
828;SDS011;396;52.558;13.188;2023-07-20T10:43:57;7.90;;;0.83;;
828;SDS011;396;52.558;13.188;2023-07-20T10:46:41;4.10;;;0.60;;
828;SDS011;396;52.558;13.188;2023-07-20T10:49:10;4.40;;;0.67;;
828;SDS011;396;52.558;13.188;2023-07-20T10:51:40;4.40;;;0.70;;
828;SDS011;396;52.558;13.188;2023-07-20T10:54:12;4.10;;;0.63;;
828;SDS011;396;52.558;13.188;2023-07-20T10:59:48;4.30;;;0.60;;
828;SDS011;396;52.558;13.188;2023-07-20T11:02:17;4.10;;;0.60;;
828;SDS011;396;52.558;13.188;2023-07-20T11:04:45;4.10;;;0.50;;
828;SDS011;396;52.558;13.188;2023-07-20T11:07:15;4.73;;;0.67;;
828;SDS011;396;52.558;13.188;2023-07-20T11:09:43;4.10;;;0.60;;
828;SDS011;396;52.558;13.188;2023-07-20T11:12:11;4.00;;;0.50;;
828;SDS011;396;52.558;13.188;2023-07-20T11:14:40;4.20;;;0.60;;
828;SDS011;396;52.558;13.188;2023-07-20T11:17:10;4.27;;;0.70;;
828;SDS011;396;52.558;13.188;2023-07-20T11:19:38;5.13;;;0.70;;
828;SDS011;396;52.558;13.188;2023-07-20T11:22:06;4.00;;;0.40;;
828;SDS011;396;52.558;13.188;2023-07-20T11:24:34;4.00;;;0.50;;
828;SDS011;396;52.558;13.188;2023-07-20T11:27:02;4.30;;;0.70;;
828;SDS011;396;52.558;13.188;2023-07-20T11:29:29;4.10;;;0.60;;
828;SDS011;396;52.558;13.188;2023-07-20T11:31:56;4.20;;;0.63;;
828;SDS011;396;52.558;13.188;2023-07-20T11:34:24;4.20;;;0.50;;
828;SDS011;396;52.558;13.188;2023-07-20T11:36:51;4.00;;;0.50;;
828;SDS011;396;52.558;13.188;2023-07-20T11:39:18;4.40;;;0.60;;
828;SDS011;396;52.558;13.188;2023-07-20T11:41:46;3.97;;;0.43;;
828;SDS011;396;52.558;13.188;2023-07-20T11:44:16;4.10;;;0.50;;
828;SDS011;396;52.558;13.188;2023-07-20T11:46:44;3.97;;;0.50;;
828;SDS011;396;52.558;13.188;2023-07-20T11:49:11;3.97;;;0.40;;
828;SDS011;396;52.558;13.188;2023-07-20T11:51:39;4.10;;;0.40;;
828;SDS011;396;52.558;13.188;2023-07-20T11:54:07;4.40;;;0.60;;
828;SDS011;396;52.558;13.188;2023-07-20T11:56:35;4.10;;;0.50;;
828;SDS011;396;52.558;13.188;2023-07-20T11:59:01;4.40;;;0.70;;
828;SDS011;396;52.558;13.188;2023-07-20T12:01:30;4.10;;;0.50;;
828;SDS011;396;52.558;13.188;2023-07-20T12:03:59;4.30;;;0.60;;
828;SDS011;396;52.558;13.188;2023-07-20T12:06:27;4.20;;;0.70;;
828;SDS011;396;52.558;13.188;2023-07-20T12:08:54;4.20;;;0.67;;
828;SDS011;396;52.558;13.188;2023-07-20T12:11:32;3.97;;;0.50;;
828;SDS011;396;52.558;13.188;2023-07-20T12:13:59;6.43;;;0.60;;
828;SDS011;396;52.558;13.188;2023-07-20T12:16:32;4.10;;;0.57;;
828;SDS011;396;52.558;13.188;2023-07-20T12:19:06;4.20;;;0.53;;
828;SDS011;396;52.558;13.188;2023-07-20T12:21:35;3.97;;;0.40;;
828;SDS011;396;52.558;13.188;2023-07-20T12:24:34;4.03;;;0.70;;
828;SDS011;396;52.558;13.188;2023-07-20T12:27:12;4.40;;;0.60;;
828;SDS011;396;52.558;13.188;2023-07-20T12:29:58;4.60;;;0.77;;
828;SDS011;396;52.558;13.188;2023-07-20T12:32:26;4.10;;;0.50;;
828;SDS011;396;52.558;13.188;2023-07-20T12:34:53;4.10;;;0.50;;
828;SDS011;396;52.558;13.188;2023-07-20T12:37:27;4.00;;;0.50;;
828;SDS011;396;52.558;13.188;2023-07-20T12:39:54;4.00;;;0.50;;
828;SDS011;396;52.558;13.188;2023-07-20T12:42:23;4.30;;;0.50;;
828;SDS011;396;52.558;13.188;2023-07-20T12:45:01;4.00;;;0.43;;
828;SDS011;396;52.558;13.188;2023-07-20T12:47:31;4.87;;;0.60;;
828;SDS011;396;52.558;13.188;2023-07-20T12:49:58;3.80;;;0.40;;
828;SDS011;396;52.558;13.188;2023-07-20T12:52:26;4.00;;;0.60;;
828;SDS011;396;52.558;13.188;2023-07-20T12:55:04;4.00;;;0.53;;
828;SDS011;396;52.558;13.188;2023-07-20T12:57:33;3.90;;;0.40;;
828;SDS011;396;52.558;13.188;2023-07-20T13:00:00;3.90;;;0.40;;
828;SDS011;396;52.558;13.188;2023-07-20T13:02:29;4.40;;;0.50;;
828;SDS011;396;52.558;13.188;2023-07-20T13:04:59;3.83;;;0.50;;
828;SDS011;396;52.558;13.188;2023-07-20T13:07:35;3.90;;;0.50;;
828;SDS011;396;52.558;13.188;2023-07-20T13:10:22;3.90;;;0.50;;
828;SDS011;396;52.558;13.188;2023-07-20T13:13:04;4.00;;;0.60;;
828;SDS011;396;52.558;13.188;2023-07-20T13:15:32;4.20;;;0.53;;
828;SDS011;396;52.558;13.188;2023-07-20T13:18:00;3.90;;;0.50;;
828;SDS011;396;52.558;13.188;2023-07-20T13:22:55;4.00;;;0.50;;
828;SDS011;396;52.558;13.188;2023-07-20T13:25:21;4.30;;;0.70;;
828;SDS011;396;52.558;13.188;2023-07-20T13:27:48;3.93;;;0.50;;
828;SDS011;396;52.558;13.188;2023-07-20T13:30:14;4.20;;;0.50;;
828;SDS011;396;52.558;13.188;2023-07-20T13:32:42;3.97;;;0.53;;
828;SDS011;396;52.558;13.188;2023-07-20T13:35:11;4.00;;;0.60;;
828;SDS011;396;52.558;13.188;2023-07-20T13:37:37;3.93;;;0.50;;
828;SDS011;396;52.558;13.188;2023-07-20T13:40:05;4.10;;;0.50;;
828;SDS011;396;52.558;13.188;2023-07-20T13:42:33;3.90;;;0.50;;
828;SDS011;396;52.558;13.188;2023-07-20T13:45:00;3.80;;;0.50;;
828;SDS011;396;52.558;13.188;2023-07-20T13:47:27;3.87;;;0.50;;
828;SDS011;396;52.558;13.188;2023-07-20T13:49:54;4.00;;;0.50;;
828;SDS011;396;52.558;13.188;2023-07-20T13:52:22;4.10;;;0.60;;
828;SDS011;396;52.558;13.188;2023-07-20T13:54:49;3.90;;;0.50;;
828;SDS011;396;52.558;13.188;2023-07-20T13:57:15;3.97;;;0.53;;
828;SDS011;396;52.558;13.188;2023-07-20T13:59:42;3.80;;;0.40;;
828;SDS011;396;52.558;13.188;2023-07-20T14:02:09;4.00;;;0.60;;
828;SDS011;396;52.558;13.188;2023-07-20T14:04:37;4.00;;;0.60;;
828;SDS011;396;52.558;13.188;2023-07-20T14:07:04;3.80;;;0.43;;
828;SDS011;396;52.558;13.188;2023-07-20T14:09:32;4.77;;;0.70;;
828;SDS011;396;52.558;13.188;2023-07-20T14:11:59;4.00;;;0.60;;
828;SDS011;396;52.558;13.188;2023-07-20T14:14:25;3.87;;;0.47;;
828;SDS011;396;52.558;13.188;2023-07-20T14:16:52;3.97;;;0.50;;
828;SDS011;396;52.558;13.188;2023-07-20T14:19:19;4.10;;;0.60;;
828;SDS011;396;52.558;13.188;2023-07-20T14:21:46;4.10;;;0.57;;
828;SDS011;396;52.558;13.188;2023-07-20T14:24:12;5.63;;;0.70;;
828;SDS011;396;52.558;13.188;2023-07-20T14:26:40;4.40;;;0.70;;
828;SDS011;396;52.558;13.188;2023-07-20T14:29:07;4.27;;;0.43;;
828;SDS011;396;52.558;13.188;2023-07-20T14:31:34;4.50;;;0.80;;
828;SDS011;396;52.558;13.188;2023-07-20T14:34:00;4.63;;;0.97;;
828;SDS011;396;52.558;13.188;2023-07-20T14:36:27;4.97;;;0.80;;
828;SDS011;396;52.558;13.188;2023-07-20T14:38:53;4.10;;;0.50;;
828;SDS011;396;52.558;13.188;2023-07-20T14:41:20;4.50;;;0.90;;
828;SDS011;396;52.558;13.188;2023-07-20T14:43:48;4.43;;;0.80;;
828;SDS011;396;52.558;13.188;2023-07-20T14:46:15;4.20;;;0.60;;
828;SDS011;396;52.558;13.188;2023-07-20T14:48:42;4.33;;;0.60;;
828;SDS011;396;52.558;13.188;2023-07-20T14:51:08;4.00;;;0.50;;
828;SDS011;396;52.558;13.188;2023-07-20T14:53:35;4.57;;;0.63;;
828;SDS011;396;52.558;13.188;2023-07-20T14:56:01;4.23;;;0.50;;
828;SDS011;396;52.558;13.188;2023-07-20T14:58:29;4.07;;;0.50;;
828;SDS011;396;52.558;13.188;2023-07-20T15:00:57;4.40;;;0.70;;
828;SDS011;396;52.558;13.188;2023-07-20T15:03:23;4.20;;;0.57;;
828;SDS011;396;52.558;13.188;2023-07-20T15:05:50;4.00;;;0.50;;
828;SDS011;396;52.558;13.188;2023-07-20T15:08:17;5.17;;;1.00;;
828;SDS011;396;52.558;13.188;2023-07-20T15:10:44;4.30;;;0.70;;
828;SDS011;396;52.558;13.188;2023-07-20T15:13:11;3.90;;;0.40;;
828;SDS011;396;52.558;13.188;2023-07-20T15:15:38;4.20;;;0.43;;
828;SDS011;396;52.558;13.188;2023-07-20T15:18:09;4.23;;;0.63;;
828;SDS011;396;52.558;13.188;2023-07-20T15:20:36;4.10;;;0.53;;
828;SDS011;396;52.558;13.188;2023-07-20T15:23:02;4.30;;;0.73;;
828;SDS011;396;52.558;13.188;2023-07-20T15:25:29;5.30;;;0.77;;
828;SDS011;396;52.558;13.188;2023-07-20T15:27:56;4.20;;;0.80;;
828;SDS011;396;52.558;13.188;2023-07-20T15:30:22;4.20;;;0.70;;
828;SDS011;396;52.558;13.188;2023-07-20T15:32:49;4.53;;;0.53;;
828;SDS011;396;52.558;13.188;2023-07-20T15:35:17;4.50;;;0.90;;
828;SDS011;396;52.558;13.188;2023-07-20T15:37:44;6.13;;;1.50;;
828;SDS011;396;52.558;13.188;2023-07-20T15:40:11;7.50;;;2.30;;
828;SDS011;396;52.558;13.188;2023-07-20T15:42:38;6.00;;;1.00;;
828;SDS011;396;52.558;13.188;2023-07-20T15:45:05;4.60;;;0.77;;
828;SDS011;396;52.558;13.188;2023-07-20T15:47:33;5.37;;;1.10;;
828;SDS011;396;52.558;13.188;2023-07-20T15:49:59;4.50;;;0.80;;